Time;durP1;ratioP1;P1;durP2;ratioP2;P2;SDS_P1;SDS_P2;PMS_P1;PMS_P2;Temp;Humidity;BMP_temperature;BMP_pressure;BME280_temperature;BME280_humidity;BME280_pressure;Samples;Min_cycle;Max_cycle;Signal;HPM_P1;HPM_P2
2021/11/11 00:01:13;;;;;;;;;67.75;51.75;;;;;8.87;61.31;102086.38;5060732;28;45349;-66
2021/11/11 00:03:39;;;;;;;;;63.75;50.25;;;;;8.86;61.14;102073.94;5060590;28;45259;-65
2021/11/11 00:06:04;;;;;;;;;67.50;52.75;;;;;8.88;61.00;102082.81;5060581;28;45421;-65
2021/11/11 00:08:30;;;;;;;;;67.00;50.00;;;;;8.86;60.94;102081.06;5060280;28;45398;-65
2021/11/11 00:10:55;;;;;;;;;54.50;45.00;;;;;8.79;60.93;102064.22;5060208;28;46782;-65
2021/11/11 00:13:20;;;;;;;;;65.50;50.00;;;;;8.80;61.24;102073.94;5060474;28;45264;-65
2021/11/11 00:15:48;;;;;;;;;60.75;48.00;;;;;8.79;61.00;102072.19;5060200;28;45323;-65
2021/11/11 00:18:13;;;;;;;;;66.25;51.25;;;;;8.79;61.05;102074.00;5049325;28;45822;-65
2021/11/11 00:20:39;;;;;;;;;57.00;47.00;;;;;8.79;60.86;102072.19;5058109;28;45549;-65
2021/11/11 00:23:04;;;;;;;;;58.25;48.25;;;;;8.78;61.07;102069.53;5060473;28;45341;-65
2021/11/11 00:25:30;;;;;;;;;64.00;48.50;;;;;8.79;61.24;102074.88;5055687;28;46095;-65
2021/11/11 00:27:57;;;;;;;;;56.00;47.00;;;;;8.78;60.96;102074.88;5051245;28;45227;-66
2021/11/11 00:30:22;;;;;;;;;60.00;48.00;;;;;8.77;61.11;102071.31;5060504;28;45279;-66
2021/11/11 00:32:50;;;;;;;;;62.50;49.25;;;;;8.78;60.79;102065.09;5060327;28;45250;-65
2021/11/11 00:35:21;;;;;;;;;56.00;45.25;;;;;8.74;61.04;102055.34;5060001;28;45421;-66
2021/11/11 00:37:47;;;;;;;;;56.75;42.75;;;;;8.73;60.97;102053.56;5060194;28;45764;-65
2021/11/11 00:40:14;;;;;;;;;59.50;48.00;;;;;8.69;61.16;102047.38;5046315;28;45219;-65
2021/11/11 00:42:39;;;;;;;;;61.50;51.25;;;;;8.65;61.26;102045.63;5060177;28;45247;-65
2021/11/11 00:45:05;;;;;;;;;66.25;52.00;;;;;8.63;61.04;102046.53;5059896;28;45456;-66
2021/11/11 00:47:32;;;;;;;;;60.50;48.50;;;;;8.64;61.11;102049.19;5059924;28;45808;-65
2021/11/11 00:49:58;;;;;;;;;60.50;48.00;;;;;8.60;61.28;102044.75;5059960;28;45386;-65
2021/11/11 00:52:24;;;;;;;;;61.25;50.00;;;;;8.56;61.07;102043.00;5059865;28;45405;-66
2021/11/11 00:54:49;;;;;;;;;59.50;49.00;;;;;8.59;61.20;102047.44;5059746;28;45457;-65
2021/11/11 00:57:14;;;;;;;;;62.75;50.00;;;;;8.59;61.12;102047.44;5059861;28;45339;-66
2021/11/11 00:59:42;;;;;;;;;67.50;50.25;;;;;8.57;61.60;102036.78;5060030;28;45228;-65
2021/11/11 01:02:09;;;;;;;;;57.75;46.50;;;;;8.59;61.03;102037.66;5059596;28;45414;-65
2021/11/11 01:04:36;;;;;;;;;58.75;47.00;;;;;8.57;60.87;102038.53;5059747;28;45392;-65
2021/11/11 01:07:02;;;;;;;;;62.00;49.50;;;;;8.58;61.13;102043.00;5041828;28;45276;-66
2021/11/11 01:09:29;;;;;;;;;53.75;44.75;;;;;8.56;60.95;102045.66;5058254;28;46522;-65
2021/11/11 01:11:56;;;;;;;;;57.75;45.75;;;;;8.51;60.89;102029.69;5059672;28;45506;-66
2021/11/11 01:14:21;;;;;;;;;56.25;45.00;;;;;8.48;60.94;102042.13;5059548;28;45315;-65
2021/11/11 01:16:47;;;;;;;;;60.00;48.50;;;;;8.44;60.97;102040.38;5059280;28;45302;-66
2021/11/11 01:19:13;;;;;;;;;61.00;50.75;;;;;8.42;60.87;102040.34;5058064;28;45454;-66
2021/11/11 01:21:39;;;;;;;;;61.75;50.50;;;;;8.37;60.80;102033.25;5058273;28;45446;-65
2021/11/11 01:24:05;;;;;;;;;59.25;46.00;;;;;8.36;60.80;102037.69;5059531;28;46180;-65
2021/11/11 01:26:30;;;;;;;;;60.75;48.50;;;;;8.31;60.84;102029.72;5046888;28;45407;-66
2021/11/11 01:28:56;;;;;;;;;62.75;50.50;;;;;8.20;60.66;102014.66;5058554;28;45313;-66
2021/11/11 01:31:21;;;;;;;;;44.25;39.50;;;;;8.24;60.74;102027.97;5059434;28;45263;-65
2021/11/11 01:33:47;;;;;;;;;65.75;49.50;;;;;8.25;60.82;102028.84;5059312;28;47157;-65
2021/11/11 01:36:12;;;;;;;;;62.25;50.50;;;;;8.18;60.38;102021.78;5059449;28;45409;-66
2021/11/11 01:38:38;;;;;;;;;62.50;49.00;;;;;8.19;60.06;102010.25;5058240;28;46050;-66
2021/11/11 01:41:07;;;;;;;;;60.25;47.00;;;;;8.20;60.28;102009.34;5057547;28;45521;-65
2021/11/11 01:43:32;;;;;;;;;58.00;47.50;;;;;8.20;60.04;102004.03;5059062;28;45611;-65
2021/11/11 01:45:59;;;;;;;;;62.75;48.50;;;;;8.15;60.18;102004.94;5059505;28;45244;-65
2021/11/11 01:48:26;;;;;;;;;60.00;50.00;;;;;8.11;60.17;101996.97;5059238;28;45334;-68
2021/11/11 01:50:53;;;;;;;;;63.25;50.75;;;;;8.11;60.54;101996.97;5063016;28;45433;-65
2021/11/11 01:53:20;;;;;;;;;62.50;50.75;;;;;8.06;60.64;101991.66;5062669;28;45387;-66
2021/11/11 01:55:47;;;;;;;;;60.25;47.75;;;;;8.09;60.35;101996.09;5062786;28;45333;-65
2021/11/11 01:58:14;;;;;;;;;62.75;48.75;;;;;8.08;60.33;101995.19;5062681;28;45251;-66
2021/11/11 02:00:45;;;;;;;;;62.75;48.25;;;;;8.06;60.62;101985.44;5062748;28;45545;-66
2021/11/11 02:03:11;;;;;;;;;61.75;46.50;;;;;8.06;60.79;101990.78;5062437;28;46235;-66
2021/11/11 02:05:38;;;;;;;;;62.25;50.50;;;;;8.03;60.61;101993.44;5062463;28;45485;-66
2021/11/11 02:08:05;;;;;;;;;62.75;50.25;;;;;8.02;60.72;101996.97;5062554;28;45333;-65
2021/11/11 02:10:33;;;;;;;;;60.50;49.00;;;;;8.05;60.64;102003.19;5060984;28;45405;-66
2021/11/11 02:12:59;;;;;;;;;63.00;49.25;;;;;7.98;60.61;101981.03;5053507;28;46448;-66
2021/11/11 02:15:25;;;;;;;;;60.00;50.75;;;;;7.97;60.57;101987.25;5052522;28;45377;-66
2021/11/11 02:17:51;;;;;;;;;61.75;47.75;;;;;7.94;60.67;101991.69;5060963;28;45462;-65
2021/11/11 02:20:23;;;;;;;;;63.00;49.50;;;;;7.89;61.02;101986.38;5058341;28;45442;-65
2021/11/11 02:22:49;;;;;;;;;64.00;49.25;;;;;7.91;60.82;101992.56;5061967;28;47021;-66
2021/11/11 02:25:17;;;;;;;;;63.25;46.75;;;;;7.89;61.09;101989.03;5060878;28;45381;-65
2021/11/11 02:27:44;;;;;;;;;61.50;47.25;;;;;7.87;61.53;101985.47;5062387;28;45245;-65
2021/11/11 02:30:13;;;;;;;;;58.50;46.75;;;;;7.90;61.27;101996.13;5044116;28;45745;-66
2021/11/11 02:32:39;;;;;;;;;65.00;48.25;;;;;7.91;61.36;101997.00;5062190;28;45344;-66
2021/11/11 02:35:07;;;;;;;;;69.25;55.75;;;;;7.91;61.51;101992.56;5062058;28;45804;-65
2021/11/11 02:37:34;;;;;;;;;68.75;55.50;;;;;7.87;61.42;101985.47;5062118;28;45263;-65
2021/11/11 02:40:03;;;;;;;;;71.50;54.75;;;;;7.91;61.81;102000.53;5052096;28;45483;-66
2021/11/11 02:42:28;;;;;;;;;67.75;53.00;;;;;7.91;61.52;101995.22;5061966;28;45398;-65
2021/11/11 02:44:57;;;;;;;;;71.00;54.75;;;;;7.95;61.94;101998.75;5062090;28;45381;-65
2021/11/11 02:47:22;;;;;;;;;67.25;51.25;;;;;7.93;62.10;101989.91;5061937;28;45444;-65
2021/11/11 02:49:48;;;;;;;;;69.50;54.25;;;;;7.96;61.85;101992.56;5061827;28;45584;-66
2021/11/11 02:52:13;;;;;;;;;68.75;53.50;;;;;7.97;61.92;101991.69;5061908;28;45856;-66
2021/11/11 02:54:40;;;;;;;;;63.75;51.75;;;;;8.00;62.11;101999.63;5061886;28;45341;-65
2021/11/11 02:57:18;;;;;;;;;63.75;50.25;;;;;7.97;62.37;102003.19;5061743;28;45435;-65
2021/11/11 02:59:43;;;;;;;;;64.25;48.75;;;;;7.64;62.33;101942.09;5061629;28;45401;-65
2021/11/11 03:02:25;;;;;;;;;63.00;51.00;;;;;7.96;62.40;102003.19;5060159;28;48624;-65
2021/11/11 03:04:51;;;;;;;;;64.25;51.25;;;;;7.96;62.24;101995.22;5056873;28;45881;-65
2021/11/11 03:07:17;;;;;;;;;55.25;46.00;;;;;7.96;62.56;102000.53;5070449;28;45429;-65
2021/11/11 03:09:43;;;;;;;;;60.00;48.00;;;;;7.93;62.37;101998.75;5059510;28;45991;-65
2021/11/11 03:12:09;;;;;;;;;61.25;50.00;;;;;7.94;62.15;102004.97;5061479;28;46364;-65
2021/11/11 03:14:35;;;;;;;;;63.50;49.25;;;;;7.93;62.19;102005.84;5048086;28;45292;-65
2021/11/11 03:17:02;;;;;;;;;63.25;48.25;;;;;7.93;61.99;102001.41;5061182;28;45351;-65
2021/11/11 03:19:27;;;;;;;;;59.25;48.00;;;;;7.96;62.11;102005.84;5048406;28;45241;-66
2021/11/11 03:21:53;;;;;;;;;64.75;51.00;;;;;7.95;62.07;101996.09;5059822;28;46161;-65
2021/11/11 03:24:18;;;;;;;;;61.00;49.00;;;;;7.93;62.28;102000.53;5056928;28;45185;-66
2021/11/11 03:26:44;;;;;;;;;64.50;51.50;;;;;7.93;61.81;102006.72;5056686;28;45448;-65
2021/11/11 03:29:09;;;;;;;;;58.50;47.75;;;;;7.94;61.89;102012.94;5061432;28;45291;-65
2021/11/11 03:31:34;;;;;;;;;61.50;47.75;;;;;7.94;61.59;102010.28;5061199;28;45212;-65
2021/11/11 03:34:00;;;;;;;;;58.50;46.25;;;;;7.93;61.91;102003.19;5061347;28;45381;-66
2021/11/11 03:36:25;;;;;;;;;57.75;46.25;;;;;7.91;62.09;102000.53;5061251;28;45311;-65
2021/11/11 03:38:51;;;;;;;;;63.50;48.00;;;;;7.89;62.30;101998.78;5054327;28;45586;-66
2021/11/11 03:41:16;;;;;;;;;63.50;48.50;;;;;7.87;62.07;101993.47;5053724;28;46091;-65
2021/11/11 03:43:41;;;;;;;;;58.25;47.00;;;;;7.88;61.85;101997.00;5059860;28;45362;-65
2021/11/11 03:46:11;;;;;;;;;66.00;50.25;;;;;7.86;62.12;102004.09;5061221;28;45355;-65
2021/11/11 03:48:36;;;;;;;;;57.75;48.00;;;;;7.82;61.92;101995.25;5060917;28;45360;-66
2021/11/11 03:51:02;;;;;;;;;61.00;50.50;;;;;7.78;61.89;101996.09;5060947;28;46320;-65
2021/11/11 03:53:27;;;;;;;;;60.50;49.25;;;;;7.81;61.63;102003.22;5061065;28;45204;-66
2021/11/11 03:55:52;;;;;;;;;67.25;52.50;;;;;7.78;61.77;102012.06;5060989;28;45286;-65
2021/11/11 03:58:18;;;;;;;;;64.25;49.25;;;;;7.78;61.87;102025.34;5060763;28;45225;-66
2021/11/11 04:00:45;;;;;;;;;55.75;45.25;;;;;7.76;61.66;102008.53;5059989;28;46216;-66
2021/11/11 04:03:10;;;;;;;;;56.00;45.25;;;;;7.76;61.72;102003.22;5060454;28;45345;-65
2021/11/11 04:05:36;;;;;;;;;53.50;44.00;;;;;7.77;61.59;102011.19;5060610;28;45474;-66
2021/11/11 04:08:02;;;;;;;;;50.50;41.50;;;;;7.77;61.65;102007.66;5060182;28;45326;-65
2021/11/11 04:10:27;;;;;;;;;53.25;42.50;;;;;7.76;61.77;102008.53;5059490;28;45441;-65
2021/11/11 04:12:53;;;;;;;;;55.00;42.75;;;;;7.76;61.66;102020.03;5060125;28;45560;-66
2021/11/11 04:15:19;;;;;;;;;55.50;43.75;;;;;7.75;61.75;102012.06;5059916;28;45481;-66
2021/11/11 04:17:44;;;;;;;;;56.25;43.00;;;;;7.76;61.53;102020.03;5055477;28;45567;-65
2021/11/11 04:20:10;;;;;;;;;53.25;41.00;;;;;7.73;61.68;102017.38;5058692;28;45398;-65
2021/11/11 04:22:36;;;;;;;;;56.25;43.00;;;;;7.72;61.34;102025.38;5058917;28;45743;-65
2021/11/11 04:25:05;;;;;;;;;52.50;40.50;;;;;7.70;61.42;102030.69;5060296;28;45422;-65
2021/11/11 04:27:34;;;;;;;;;57.25;44.50;;;;;7.74;61.68;102040.41;5052799;28;45397;-65
2021/11/11 04:30:12;;;;;;;;;59.00;46.25;;;;;7.76;61.26;102040.41;5059362;28;45417;-65
2021/11/11 04:32:37;;;;;;;;;78.25;59.75;;;;;7.75;61.60;102035.97;5054630;28;46035;-65
2021/11/11 04:35:03;;;;;;;;;82.00;65.25;;;;;7.75;61.33;102050.19;5060173;28;45470;-65
2021/11/11 04:43:11;;;;;;;;;102.75;87.25;;;;;7.65;61.18;102029.81;5059975;28;45375;-65
2021/11/11 04:45:54;;;;;;;;;104.00;89.75;;;;;7.72;60.92;102043.97;5048703;28;45318;-65
2021/11/11 05:04:19;;;;;;;;;95.50;82.75;;;;;7.50;61.30;102043.97;5059611;28;45460;-66
2021/11/11 05:06:44;;;;;;;;;92.00;73.25;;;;;7.50;61.06;102043.97;5059889;28;45256;-65
2021/11/11 05:09:10;;;;;;;;;85.00;66.25;;;;;7.52;60.94;102039.53;5058221;28;45512;-66
2021/11/11 05:11:35;;;;;;;;;81.75;64.25;;;;;7.49;60.74;102051.94;5059045;28;46653;-65
2021/11/11 05:14:01;;;;;;;;;80.75;61.50;;;;;7.46;60.72;102054.56;5059541;28;45282;-65
2021/11/11 05:16:26;;;;;;;;;76.00;59.25;;;;;7.43;61.15;102052.78;5059369;28;45493;-65
2021/11/11 05:18:51;;;;;;;;;73.50;55.75;;;;;7.42;61.38;102051.91;5059584;28;45487;-65
2021/11/11 05:21:17;;;;;;;;;66.00;55.75;;;;;7.39;61.23;102051.91;5059228;28;45227;-65
2021/11/11 05:23:42;;;;;;;;;72.25;56.25;;;;;7.37;61.22;102048.38;5061489;28;45416;-66
2021/11/11 05:26:08;;;;;;;;;72.75;57.25;;;;;7.29;61.15;102050.13;5063049;28;45419;-65
2021/11/11 05:28:33;;;;;;;;;70.25;55.50;;;;;7.28;60.75;102047.44;5063184;28;45448;-66
2021/11/11 05:30:59;;;;;;;;;68.50;55.75;;;;;7.28;60.88;102048.31;5062844;28;45377;-65
2021/11/11 05:33:24;;;;;;;;;63.00;52.00;;;;;7.23;61.61;102039.47;5062804;28;45431;-66
2021/11/11 05:35:50;;;;;;;;;68.75;54.25;;;;;7.24;60.89;102049.22;5063343;28;45378;-65
2021/11/11 05:38:16;;;;;;;;;69.25;54.25;;;;;7.24;61.07;102062.50;5057301;28;46323;-66
2021/11/11 05:40:41;;;;;;;;;58.75;49.25;;;;;7.18;61.59;102060.72;5049412;28;45434;-65
2021/11/11 05:43:06;;;;;;;;;61.75;49.00;;;;;7.19;61.32;102070.44;5061895;28;45194;-66
2021/11/11 05:45:32;;;;;;;;;62.50;50.75;;;;;7.19;61.19;102069.56;5063091;28;45132;-66
2021/11/11 05:47:57;;;;;;;;;67.75;51.75;;;;;7.19;60.99;102080.19;5062574;28;45556;-66
2021/11/11 05:50:23;;;;;;;;;65.50;52.25;;;;;7.20;61.28;102082.84;5062629;28;45386;-65
2021/11/11 05:52:49;;;;;;;;;63.50;48.50;;;;;7.19;61.70;102089.03;5061313;28;45328;-65
2021/11/11 05:55:14;;;;;;;;;68.50;55.00;;;;;7.23;61.87;102098.81;5050506;28;45283;-66
2021/11/11 05:57:40;;;;;;;;;70.00;56.25;;;;;7.27;61.35;102091.72;5061704;28;45480;-66
2021/11/11 06:00:14;;;;;;;;;72.50;57.00;;;;;7.32;61.47;102103.25;5055480;28;47198;-65
2021/11/11 06:02:41;;;;;;;;;73.00;57.75;;;;;7.35;62.03;102112.97;5049756;28;45908;-65
2021/11/11 06:05:07;;;;;;;;;70.75;56.25;;;;;7.34;61.95;102119.19;5061312;28;45406;-65
2021/11/11 06:07:32;;;;;;;;;79.25;61.25;;;;;7.36;61.90;102128.06;5062500;28;45383;-65
2021/11/11 06:09:58;;;;;;;;;70.25;54.50;;;;;7.35;62.35;102124.50;5062141;28;45427;-66
2021/11/11 06:12:23;;;;;;;;;65.25;51.25;;;;;7.37;62.27;102121.88;5062492;28;45363;-65
2021/11/11 06:14:49;;;;;;;;;62.50;50.50;;;;;7.37;62.21;102127.19;5062295;28;45343;-66
2021/11/11 06:17:14;;;;;;;;;70.25;55.25;;;;;7.40;62.32;102136.03;5061953;28;45446;-65
2021/11/11 06:19:42;;;;;;;;;62.00;50.25;;;;;7.34;62.32;102133.34;5060862;28;46431;-65
2021/11/11 06:22:08;;;;;;;;;61.00;48.25;;;;;7.35;62.73;102148.44;5062258;28;45744;-65
2021/11/11 06:24:34;;;;;;;;;60.50;47.50;;;;;7.30;62.73;102144.88;5062326;28;45534;-65
2021/11/11 06:26:59;;;;;;;;;62.25;50.00;;;;;7.36;62.62;102151.97;5062029;28;45462;-65
2021/11/11 06:29:25;;;;;;;;;59.25;47.00;;;;;7.32;62.44;102148.41;5061776;28;46266;-65
2021/11/11 06:31:51;;;;;;;;;59.75;48.75;;;;;7.35;62.75;102155.47;5062143;28;45388;-65
2021/11/11 06:34:16;;;;;;;;;58.50;45.75;;;;;7.36;62.60;102170.56;5061615;28;45468;-65
2021/11/11 06:36:42;;;;;;;;;63.50;49.00;;;;;7.37;62.15;102172.34;5061970;28;45255;-65
2021/11/11 06:39:08;;;;;;;;;62.75;49.25;;;;;7.34;62.37;102172.31;5053289;28;45400;-65
2021/11/11 06:41:33;;;;;;;;;58.50;47.00;;;;;7.28;61.82;102169.63;5056877;28;45485;-65
2021/11/11 06:43:59;;;;;;;;;60.50;47.50;;;;;7.31;62.13;102182.94;5062236;28;45241;-65
2021/11/11 06:46:24;;;;;;;;;62.50;51.75;;;;;7.28;62.12;102181.13;5061630;28;45412;-65
2021/11/11 06:48:50;;;;;;;;;58.00;47.50;;;;;7.29;62.01;102182.91;5061676;28;46128;-65
2021/11/11 06:51:15;;;;;;;;;58.75;47.25;;;;;7.28;62.52;102193.53;5061907;28;45221;-65
2021/11/11 06:53:41;;;;;;;;;60.75;49.25;;;;;7.28;62.39;102197.06;5062187;28;45178;-65
2021/11/11 06:56:07;;;;;;;;;65.50;50.00;;;;;7.28;62.80;102202.38;5047941;28;45379;-65
2021/11/11 06:58:33;;;;;;;;;68.25;55.00;;;;;7.32;61.88;102208.63;5061810;28;46060;-65
2021/11/11 07:01:00;;;;;;;;;66.00;51.75;;;;;7.33;62.54;102202.41;5053882;28;45313;-65
2021/11/11 07:03:27;;;;;;;;;65.50;52.50;;;;;7.30;62.33;102205.97;5057148;28;45413;-65
2021/11/11 07:05:52;;;;;;;;;67.25;51.50;;;;;7.34;62.32;102212.16;5057746;28;45485;-65
2021/11/11 07:08:18;;;;;;;;;64.50;50.25;;;;;7.35;62.52;102206.88;5060239;28;47303;-65
2021/11/11 07:10:46;;;;;;;;;69.00;51.50;;;;;7.36;62.43;102208.63;5058824;28;45580;-65
2021/11/11 07:13:12;;;;;;;;;65.00;52.50;;;;;7.33;62.41;102191.78;5061853;28;45312;-66
2021/11/11 07:15:38;;;;;;;;;62.75;48.75;;;;;7.37;62.92;102207.75;5061323;28;45222;-65
2021/11/11 07:18:04;;;;;;;;;64.50;51.50;;;;;7.36;62.63;102200.66;5061142;28;45919;-66
2021/11/11 07:20:30;;;;;;;;;66.50;52.75;;;;;7.39;62.21;102198.00;5061490;28;45818;-65
2021/11/11 07:23:04;;;;;;;;;69.25;51.50;;;;;7.38;62.66;102198.91;5061454;28;45497;-65
2021/11/11 07:25:30;;;;;;;;;68.25;53.75;;;;;7.44;62.39;102210.44;5061216;28;45318;-65
2021/11/11 07:27:56;;;;;;;;;61.00;50.00;;;;;7.44;62.09;102207.78;5061125;28;46129;-65
2021/11/11 07:30:22;;;;;;;;;67.75;51.50;;;;;7.47;62.19;102208.69;5059605;28;45405;-65
2021/11/11 07:32:48;;;;;;;;;68.25;53.25;;;;;7.48;62.24;102210.44;5061267;28;45398;-66
2021/11/11 07:35:14;;;;;;;;;65.25;52.50;;;;;7.49;62.32;102200.72;5061088;28;45256;-65
2021/11/11 07:37:43;;;;;;;;;65.00;50.00;;;;;7.53;61.88;102208.69;5060990;28;46652;-65
2021/11/11 07:40:10;;;;;;;;;67.50;54.00;;;;;7.52;62.34;102203.41;5047519;28;45292;-65
2021/11/11 07:42:36;;;;;;;;;65.75;52.25;;;;;7.52;62.40;102206.06;5061243;28;45489;-65
2021/11/11 07:45:03;;;;;;;;;61.75;48.50;;;;;7.54;61.92;102217.56;5060370;28;45413;-65
2021/11/11 07:47:29;;;;;;;;;59.00;45.75;;;;;7.53;62.50;102211.34;5060549;28;45320;-65
2021/11/11 07:49:59;;;;;;;;;57.25;46.75;;;;;7.56;61.88;102207.81;5060735;28;45394;-65
2021/11/11 07:52:27;;;;;;;;;63.75;50.50;;;;;7.56;62.07;102198.06;5059887;28;45268;-65
2021/11/11 07:54:55;;;;;;;;;59.25;49.75;;;;;7.60;62.53;102199.88;5060786;28;45355;-65
2021/11/11 07:57:26;;;;;;;;;61.50;49.50;;;;;7.59;62.36;102195.44;5060544;28;45375;-65
2021/11/11 07:59:51;;;;;;;;;63.25;48.50;;;;;7.55;62.37;102187.44;5060499;28;45406;-65
2021/11/11 08:02:18;;;;;;;;;57.25;45.50;;;;;7.55;62.24;102188.34;5060719;28;45425;-65
2021/11/11 08:04:44;;;;;;;;;61.25;49.75;;;;;7.53;62.07;102178.56;5060658;28;45413;-65
2021/11/11 08:07:09;;;;;;;;;61.50;47.75;;;;;7.57;62.65;102185.69;5060704;28;45386;-65
2021/11/11 08:09:35;;;;;;;;;66.50;52.50;;;;;7.53;62.43;102175.91;5047391;28;45476;-65
2021/11/11 08:12:00;;;;;;;;;58.75;48.00;;;;;7.56;62.28;102173.28;5060361;28;45282;-65
2021/11/11 08:14:26;;;;;;;;;64.25;49.50;;;;;7.57;62.83;102175.06;5042761;28;45430;-65
2021/11/11 08:16:52;;;;;;;;;61.00;49.25;;;;;7.56;62.35;102175.94;5053437;28;45440;-65
2021/11/11 08:19:17;;;;;;;;;63.50;49.00;;;;;7.52;62.82;102185.66;5060642;28;45248;-65
2021/11/11 08:21:43;;;;;;;;;62.50;49.75;;;;;7.56;62.42;102187.44;5059232;28;45679;-65
2021/11/11 08:24:08;;;;;;;;;67.50;54.75;;;;;7.56;62.71;102190.09;5060613;28;45278;-65
2021/11/11 08:26:34;;;;;;;;;63.50;49.75;;;;;7.52;63.33;102177.69;5058545;28;47068;-66
2021/11/11 08:28:59;;;;;;;;;63.50;50.75;;;;;7.54;62.60;102183.91;5060240;28;45410;-66
2021/11/11 08:31:25;;;;;;;;;69.00;53.25;;;;;7.59;62.84;102182.16;5060218;28;45486;-66
2021/11/11 08:33:50;;;;;;;;;62.00;49.75;;;;;7.60;62.72;102186.59;5060580;28;45271;-67
2021/11/11 08:36:16;;;;;;;;;67.00;51.00;;;;;7.57;62.66;102175.94;5064577;28;47400;-68
2021/11/11 08:38:41;;;;;;;;;63.25;48.50;;;;;7.60;62.53;102180.38;5055518;28;45364;-68
2021/11/11 08:41:06;;;;;;;;;59.75;50.75;;;;;7.59;62.54;102173.28;5050358;28;45493;-65
2021/11/11 08:43:32;;;;;;;;;66.25;50.00;;;;;7.59;62.57;102165.31;5060075;28;45397;-65
2021/11/11 08:45:57;;;;;;;;;60.50;49.75;;;;;7.63;62.54;102160.91;5059542;28;45391;-66
2021/11/11 08:48:24;;;;;;;;;64.00;51.00;;;;;7.54;63.24;102140.50;5059901;28;45299;-64
2021/11/11 08:50:49;;;;;;;;;68.50;51.00;;;;;7.59;62.93;102146.72;5059897;28;45322;-64
2021/11/11 08:53:15;;;;;;;;;64.00;50.75;;;;;7.66;62.80;102151.16;5060092;28;45438;-64
2021/11/11 08:55:42;;;;;;;;;66.75;51.25;;;;;7.66;63.09;102156.47;5059226;28;45190;-64
2021/11/11 08:58:09;;;;;;;;;59.25;48.75;;;;;7.65;63.32;102154.72;5055814;28;45824;-65
2021/11/11 09:00:39;;;;;;;;;68.75;53.00;;;;;7.62;62.67;102136.09;5054956;28;45411;-64
2021/11/11 09:03:06;;;;;;;;;64.25;51.25;;;;;7.68;63.01;102143.19;5057968;28;45327;-65
2021/11/11 09:05:33;;;;;;;;;72.50;55.50;;;;;7.69;62.73;102139.66;5059540;28;46353;-65
2021/11/11 09:08:01;;;;;;;;;65.25;49.50;;;;;7.65;62.98;102146.75;5059238;28;45261;-66
2021/11/11 09:10:27;;;;;;;;;64.75;52.50;;;;;7.65;63.00;102146.75;5059445;28;45449;-65
2021/11/11 09:12:53;;;;;;;;;64.50;49.25;;;;;7.65;63.02;102149.41;5045870;28;45589;-65
2021/11/11 09:15:22;;;;;;;;;69.50;54.50;;;;;7.63;63.30;102148.47;5059451;28;46087;-65
2021/11/11 09:17:49;;;;;;;;;62.00;50.75;;;;;7.67;63.48;102152.94;5058858;28;45429;-65
2021/11/11 09:20:18;;;;;;;;;69.00;54.75;;;;;7.69;63.49;102156.47;5059558;28;45338;-65
2021/11/11 09:22:43;;;;;;;;;68.00;53.75;;;;;7.74;63.57;102149.41;5059399;28;45496;-65
2021/11/11 09:25:10;;;;;;;;;68.25;53.50;;;;;7.67;63.01;102125.44;5057016;28;45357;-64
2021/11/11 09:27:37;;;;;;;;;68.25;55.00;;;;;7.70;63.49;102141.41;5051333;28;45922;-64
2021/11/11 09:30:07;;;;;;;;;68.00;53.25;;;;;7.72;63.59;102143.19;5052749;28;45469;-64
2021/11/11 09:32:32;;;;;;;;;68.25;53.00;;;;;7.72;63.17;102143.19;5046229;28;45470;-64
2021/11/11 09:34:58;;;;;;;;;75.25;55.25;;;;;7.73;63.77;102144.97;5059006;28;46100;-65
2021/11/11 09:37:23;;;;;;;;;74.25;56.25;;;;;7.72;63.54;102145.84;5059327;28;45490;-65
2021/11/11 09:39:49;;;;;;;;;72.25;56.25;;;;;7.69;64.02;102143.19;5056374;28;45336;-64
2021/11/11 09:42:16;;;;;;;;;70.25;54.25;;;;;7.74;63.88;102154.72;5059185;28;45355;-65
2021/11/11 09:44:41;;;;;;;;;67.75;53.50;;;;;7.78;63.92;102150.28;5059337;28;46452;-65
2021/11/11 09:47:07;;;;;;;;;72.50;56.00;;;;;7.81;64.29;102138.78;5059312;28;45321;-64
2021/11/11 09:49:32;;;;;;;;;68.25;54.75;;;;;7.86;64.14;102151.19;5058777;28;45312;-68
2021/11/11 09:51:58;;;;;;;;;76.25;57.00;;;;;7.87;63.89;102144.09;5046679;28;45469;-68
2021/11/11 09:59:37;;;;;;;;;76.00;57.75;;;;;7.96;64.31;102130.81;5059107;28;45551;-66
2021/11/11 10:02:03;;;;;;;;;65.25;51.50;;;;;8.03;64.27;102137.03;5059038;28;45345;-63
2021/11/11 10:04:30;;;;;;;;;72.75;57.00;;;;;8.05;64.13;102140.56;5058845;28;45315;-63
2021/11/11 10:06:56;;;;;;;;;67.75;53.75;;;;;8.09;64.37;102132.59;5059145;28;45594;-62
2021/11/11 10:09:23;;;;;;;;;76.00;57.50;;;;;8.18;64.32;102125.50;5060248;28;45255;-63
2021/11/11 10:11:54;;;;;;;;;71.50;55.25;;;;;8.22;64.14;102125.50;5062417;28;45449;-64
2021/11/11 10:14:24;;;;;;;;;70.75;55.00;;;;;8.26;64.54;102121.06;5062366;28;46129;-63
2021/11/11 10:16:55;;;;;;;;;68.25;54.25;;;;;8.28;64.44;102106.00;5062098;28;45395;-63
2021/11/11 10:19:21;;;;;;;;;78.25;57.50;;;;;8.35;64.35;102094.44;5062410;28;45312;-63
2021/11/11 10:24:27;;;;;;;;;72.50;56.00;;;;;8.50;63.92;102090.91;5049088;28;45377;-63
2021/11/11 10:27:00;;;;;;;;;69.00;55.25;;;;;8.56;63.78;102092.69;5061775;28;45326;-64
2021/11/11 10:29:39;;;;;;;;;75.75;58.25;;;;;8.55;63.08;102077.59;5049816;28;45555;-65
2021/11/11 10:32:13;;;;;;;;;66.75;53.75;;;;;8.63;64.11;102094.44;5048584;28;45437;-65
2021/11/11 10:34:52;;;;;;;;;74.00;59.50;;;;;8.63;64.04;102091.78;5060874;28;45332;-63
2021/11/11 10:37:19;;;;;;;;;70.25;56.00;;;;;8.70;64.18;102094.41;5061375;28;45408;-64
2021/11/11 10:40:13;;;;;;;;;68.25;53.75;;;;;8.76;63.80;102105.94;5061652;28;45428;-64
2021/11/11 10:42:43;;;;;;;;;75.75;58.50;;;;;8.79;64.13;102106.81;5060186;28;45166;-64
2021/11/11 10:45:16;;;;;;;;;70.25;56.00;;;;;8.87;64.17;102112.09;5061842;28;46673;-64
2021/11/11 10:47:48;;;;;;;;;74.25;58.00;;;;;8.94;64.23;102120.94;5061525;28;45383;-64
2021/11/11 10:50:22;;;;;;;;;74.25;57.50;;;;;9.01;64.35;102122.72;5061932;28;45441;-64
2021/11/11 10:52:50;;;;;;;;;68.75;55.50;;;;;9.06;63.94;102123.59;5062130;28;45457;-64
2021/11/11 10:55:19;;;;;;;;;72.25;55.25;;;;;9.13;63.99;102127.09;5061759;28;46154;-64
2021/11/11 10:57:44;;;;;;;;;72.25;56.25;;;;;9.18;63.76;102126.19;5061540;28;45412;-64
2021/11/11 14:00:38;;;;;;;;;69.00;55.50;;;;;10.14;65.20;102017.06;5117107;27;45487;-64
2021/11/11 14:03:57;;;;;;;;;74.25;57.75;;;;;10.17;64.71;102008.13;5111294;27;45440;-64
2021/11/11 15:14:43;;;;;;;;;59.50;49.00;;;;;10.90;61.81;101962.78;5102317;27;45305;-65
2021/11/11 15:16:55;;;;;;;;;65.25;51.00;;;;;10.93;61.92;101955.59;5099131;27;45638;-65
2021/11/11 16:21:41;;;;;;;;;65.75;50.25;;;;;10.98;60.93;101963.56;5084423;27;45414;-65
2021/11/11 16:24:31;;;;;;;;;64.00;51.25;;;;;10.99;61.28;101965.31;5094745;27;45352;-64
2021/11/11 16:26:59;;;;;;;;;63.50;49.50;;;;;10.95;61.25;101958.25;5099869;27;45773;-64
2021/11/11 16:29:26;;;;;;;;;64.25;51.00;;;;;11.00;60.74;101972.44;5099768;27;45570;-64
2021/11/11 16:31:53;;;;;;;;;64.00;50.75;;;;;10.98;61.11;101970.72;5099402;27;45734;-64
2021/11/11 16:34:18;;;;;;;;;66.00;51.00;;;;;10.99;61.18;101962.63;5099880;27;45361;-65
2021/11/11 16:36:43;;;;;;;;;59.00;49.25;;;;;10.97;60.97;101967.13;5100049;27;46599;-66
2021/11/11 16:39:13;;;;;;;;;62.50;49.00;;;;;10.99;61.08;101964.44;5086305;27;45657;-66
2021/11/11 16:41:39;;;;;;;;;57.00;46.50;;;;;10.97;60.81;101959.13;5086105;27;46364;-65
2021/11/11 16:44:06;;;;;;;;;60.00;48.50;;;;;10.94;60.63;101954.72;5086974;27;45412;-65
2021/11/11 16:46:34;;;;;;;;;60.25;49.00;;;;;10.93;60.72;101944.91;5093338;27;45377;-65
2021/11/11 16:49:00;;;;;;;;;59.00;47.00;;;;;10.89;60.52;101955.66;5098468;27;45402;-65
2021/11/11 16:51:26;;;;;;;;;57.25;47.25;;;;;10.92;61.02;101960.97;5099387;27;45491;-66
2021/11/11 16:53:51;;;;;;;;;62.50;50.00;;;;;10.92;61.11;101960.97;5098926;27;45391;-66
2021/11/11 16:56:16;;;;;;;;;60.25;48.50;;;;;10.82;61.11;101944.19;5098992;27;45410;-66